Time;durP1;ratioP1;P1;durP2;ratioP2;P2;SDS_P1;SDS_P2;PMS_P1;PMS_P2;Temp;Humidity;BMP_temperature;BMP_pressure;BME280_temperature;BME280_humidity;BME280_pressure;Samples;Min_cycle;Max_cycle;Signal;HPM_P1;HPM_P2
2021/01/23 00:02:12;;;;;;;42.83;22.40;;;;;;;5.45;70.59;98465.63;5045812;28;20036;-67
2021/01/23 00:04:38;;;;;;;44.05;22.88;;;;;;;5.44;70.77;98456.13;5045792;28;20387;-67
2021/01/23 00:07:05;;;;;;;41.55;22.83;;;;;;;5.44;70.93;98456.97;5044578;28;20112;-67
2021/01/23 00:09:31;;;;;;;44.53;23.30;;;;;;;5.45;70.91;98450.03;5051135;28;20088;-67
2021/01/23 00:11:57;;;;;;;45.72;22.83;;;;;;;5.43;70.87;98447.50;5046638;28;20566;-67
2021/01/23 00:14:23;;;;;;;44.35;22.33;;;;;;;5.43;70.98;98444.91;5047710;28;20540;-67
2021/01/23 00:16:50;;;;;;;36.25;21.30;;;;;;;5.42;70.90;98442.38;5041451;28;20052;-67
2021/01/23 00:19:16;;;;;;;34.67;21.08;;;;;;;5.41;70.92;98440.66;5049894;28;20095;-66
2021/01/23 00:21:42;;;;;;;37.03;21.13;;;;;;;5.38;70.72;98448.59;5048794;28;20056;-66
2021/01/23 00:24:09;;;;;;;39.25;21.50;;;;;;;5.35;71.00;98451.34;5046234;28;20051;-66
2021/01/23 00:26:35;;;;;;;38.83;21.23;;;;;;;5.34;70.89;98452.25;5040487;28;20083;-67
2021/01/23 00:29:01;;;;;;;40.70;22.80;;;;;;;5.34;70.95;98452.25;5049232;28;20571;-66
2021/01/23 00:31:27;;;;;;;45.15;23.40;;;;;;;5.32;70.63;98443.69;5045612;28;20057;-67
2021/01/23 00:33:53;;;;;;;42.85;23.83;;;;;;;5.32;70.79;98448.88;5044786;28;20045;-66
2021/01/23 00:36:20;;;;;;;43.90;24.40;;;;;;;5.32;70.69;98448.88;5044792;28;20393;-67
2021/01/23 00:38:46;;;;;;;39.45;22.77;;;;;;;5.33;70.64;98450.56;5048409;28;20051;-67
2021/01/23 00:41:13;;;;;;;45.63;24.80;;;;;;;5.32;70.68;98452.31;5044714;28;20534;-69
2021/01/23 00:43:39;;;;;;;38.92;22.33;;;;;;;5.31;70.60;98449.81;5045853;28;20099;-66
2021/01/23 00:46:05;;;;;;;40.33;23.25;;;;;;;5.29;70.87;98441.25;5047114;28;20519;-67
2021/01/23 00:48:31;;;;;;;41.92;24.20;;;;;;;5.26;70.73;98447.41;5046874;28;20577;-66
2021/01/23 00:50:57;;;;;;;38.88;23.10;;;;;;;5.26;70.96;98456.97;5045485;28;20136;-67
2021/01/23 00:53:23;;;;;;;38.47;21.52;;;;;;;5.27;70.91;98458.66;5046772;28;20045;-67
2021/01/23 00:55:49;;;;;;;40.33;21.35;;;;;;;5.29;70.81;98469.81;5047393;28;20084;-68
2021/01/23 00:58:16;;;;;;;37.28;20.92;;;;;;;5.30;70.93;98471.50;5046434;28;20049;-66
2021/01/23 01:00:42;;;;;;;40.10;21.83;;;;;;;5.32;70.84;98467.06;5047508;28;20073;-67
2021/01/23 01:03:08;;;;;;;35.65;19.55;;;;;;;5.35;70.72;98469.53;5043105;28;20088;-67
2021/01/23 01:05:34;;;;;;;35.83;19.45;;;;;;;5.37;70.76;98462.50;5047590;28;20496;-67
2021/01/23 01:08:01;;;;;;;36.50;20.48;;;;;;;5.35;70.46;98459.97;5045426;28;20083;-67
2021/01/23 01:10:27;;;;;;;40.45;21.52;;;;;;;5.34;70.88;98452.25;5049479;28;20057;-67
2021/01/23 01:12:53;;;;;;;37.58;21.42;;;;;;;5.32;70.84;98460.13;5046213;28;20083;-67
2021/01/23 01:15:20;;;;;;;34.28;21.70;;;;;;;5.30;70.75;98461.94;5045163;28;20052;-67
2021/01/23 01:17:46;;;;;;;38.95;21.85;;;;;;;5.30;70.96;98467.16;5048258;28;20049;-68
2021/01/23 01:20:12;;;;;;;35.35;20.77;;;;;;;5.27;70.79;98475.09;5051925;28;20480;-67
2021/01/23 01:22:38;;;;;;;41.70;21.38;;;;;;;5.26;70.91;98480.34;5053242;28;20129;-67
2021/01/23 01:25:06;;;;;;;37.85;20.65;;;;;;;5.23;70.95;98475.31;5049873;28;20049;-66
2021/01/23 01:27:32;;;;;;;38.03;21.48;;;;;;;5.20;70.88;98476.25;5043493;28;20045;-68
2021/01/23 01:29:58;;;;;;;36.95;20.90;;;;;;;5.17;70.92;98477.25;5053801;28;20414;-68
2021/01/23 01:32:25;;;;;;;33.30;19.48;;;;;;;5.12;70.99;98479.19;5047450;28;20049;-68
2021/01/23 01:34:51;;;;;;;32.95;20.23;;;;;;;5.09;71.10;98474.16;5047637;28;20037;-68
2021/01/23 01:37:17;;;;;;;34.58;19.60;;;;;;;5.06;70.71;98469.09;5048508;28;20045;-68
2021/01/23 01:39:43;;;;;;;35.50;20.30;;;;;;;5.03;71.02;98477.03;5052890;28;20055;-71
2021/01/23 01:42:10;;;;;;;41.95;20.42;;;;;;;5.01;71.00;98481.44;5047402;28;20045;-71
2021/01/23 01:44:36;;;;;;;40.50;23.45;;;;;;;4.97;70.79;98505.84;5048288;28;20182;-71
2021/01/23 01:47:03;;;;;;;41.38;21.98;;;;;;;4.90;70.88;98514.81;5050106;28;20396;-70
2021/01/23 01:49:30;;;;;;;36.05;19.85;;;;;;;4.83;71.00;98514.25;5051023;28;20049;-71
2021/01/23 01:51:57;;;;;;;41.53;21.65;;;;;;;4.80;70.69;98514.38;5047417;28;20047;-70
2021/01/23 01:54:24;;;;;;;42.20;22.90;;;;;;;4.77;70.46;98514.47;5049884;28;20076;-70
2021/01/23 01:56:51;;;;;;;40.15;22.23;;;;;;;4.74;70.70;98508.56;5050452;28;20041;-70
2021/01/23 01:59:17;;;;;;;46.33;23.63;;;;;;;4.68;70.41;98506.25;5054326;28;20575;-71
2021/01/23 02:01:44;;;;;;;50.97;24.10;;;;;;;4.62;70.46;98506.53;5050217;28;20563;-71
2021/01/23 02:04:27;;;;;;;46.38;23.92;;;;;;;4.56;70.84;98511.03;5049090;28;20562;-71
2021/01/23 02:07:11;;;;;;;46.97;24.13;;;;;;;4.58;70.53;98508.38;5045744;28;20056;-72
2021/01/23 02:09:54;;;;;;;51.25;24.85;;;;;;;4.59;70.60;98515.28;5049722;28;20075;-71
2021/01/23 02:12:25;;;;;;;45.22;23.13;;;;;;;4.61;70.38;98508.28;5051570;28;20132;-71
2021/01/23 02:15:00;;;;;;;42.20;22.85;;;;;;;4.59;70.32;98516.13;5046172;28;20045;-71
2021/01/23 02:17:30;;;;;;;42.97;22.70;;;;;;;4.51;70.12;98523.38;5045851;28;20136;-70
2021/01/23 02:20:16;;;;;;;42.42;22.88;;;;;;;4.42;69.87;98526.34;5053605;28;20402;-70
2021/01/23 02:23:03;;;;;;;39.05;22.05;;;;;;;4.37;69.86;98527.41;5050477;28;20044;-70
2021/01/23 02:25:37;;;;;;;40.63;22.48;;;;;;;4.36;69.54;98534.34;5049188;28;20099;-70
2021/01/23 02:28:13;;;;;;;46.72;24.05;;;;;;;4.33;69.73;98533.66;5047024;28;20059;-73
2021/01/23 02:30:41;;;;;;;51.47;28.67;;;;;;;4.27;69.84;98534.75;5051179;28;20124;-72
2021/01/23 02:33:09;;;;;;;51.40;28.08;;;;;;;4.24;69.70;98524.50;5048393;28;20041;-72
2021/01/23 02:35:37;;;;;;;58.72;29.60;;;;;;;4.18;69.79;98527.34;5049430;28;20053;-71
2021/01/23 02:38:05;;;;;;;63.20;32.60;;;;;;;4.15;70.11;98520.50;5044896;28;20136;-71
2021/01/23 02:40:31;;;;;;;51.10;28.48;;;;;;;4.13;70.25;98522.31;5050488;28;20081;-72
2021/01/23 02:42:57;;;;;;;57.78;29.90;;;;;;;4.11;70.38;98528.47;5047672;28;20096;-72
2021/01/23 02:45:23;;;;;;;55.65;29.40;;;;;;;4.11;70.12;98528.47;5048511;28;20424;-72
2021/01/23 02:47:49;;;;;;;61.22;29.65;;;;;;;4.08;70.23;98513.88;5049021;28;20044;-73
2021/01/23 02:50:17;;;;;;;53.33;28.38;;;;;;;4.06;70.29;98525.22;5049802;28;20507;-72
2021/01/23 02:52:53;;;;;;;59.83;28.80;;;;;;;4.04;70.19;98532.22;5047148;28;20131;-71
2021/01/23 02:55:21;;;;;;;65.57;33.67;;;;;;;4.02;70.46;98540.06;5049182;28;20049;-72
2021/01/23 02:57:49;;;;;;;62.85;30.23;;;;;;;4.02;70.52;98536.63;5050441;28;20121;-72
2021/01/23 03:00:18;;;;;;;61.00;30.95;;;;;;;4.05;70.69;98539.09;5051514;28;20045;-71
2021/01/23 03:02:49;;;;;;;68.03;31.13;;;;;;;4.07;70.79;98542.47;5051408;28;20045;-71
2021/01/23 03:05:18;;;;;;;55.97;29.30;;;;;;;4.11;70.93;98549.22;5044963;28;20049;-68
2021/01/23 03:07:45;;;;;;;57.88;29.52;;;;;;;4.14;70.76;98538.72;5043593;28;20045;-67
2021/01/23 03:10:12;;;;;;;61.80;29.52;;;;;;;4.21;70.67;98537.59;5045752;28;20049;-67
2021/01/23 03:12:38;;;;;;;62.55;30.58;;;;;;;4.37;70.55;98536.03;5051414;28;20394;-68
2021/01/23 03:15:06;;;;;;;69.55;31.40;;;;;;;4.57;70.23;98524.84;5046089;28;20516;-67
2021/01/23 03:17:32;;;;;;;64.22;31.02;;;;;;;4.84;69.99;98522.88;5046157;28;20041;-67
2021/01/23 03:19:58;;;;;;;50.80;29.10;;;;;;;5.07;69.40;98517.53;5050820;28;20052;-68
2021/01/23 03:22:25;;;;;;;57.22;28.63;;;;;;;5.25;69.33;98517.63;5046807;28;20496;-71
2021/01/23 03:24:51;;;;;;;68.90;41.22;;;;;;;5.42;68.89;98515.97;5046095;28;20073;-72
2021/01/23 03:27:17;;;;;;;69.45;39.00;;;;;;;5.54;68.84;98513.72;5044474;28;20057;-72
2021/01/23 03:29:43;;;;;;;70.75;39.35;;;;;;;5.65;68.69;98508.88;5053242;28;20090;-67
2021/01/23 03:32:10;;;;;;;59.70;33.47;;;;;;;5.77;68.63;98514.34;5047958;28;20514;-68
2021/01/23 03:34:36;;;;;;;57.85;32.65;;;;;;;5.93;68.29;98516.28;5044211;28;20091;-66
2021/01/23 03:37:02;;;;;;;57.00;32.63;;;;;;;6.05;68.06;98513.09;5046207;28;20079;-67
2021/01/23 03:39:29;;;;;;;50.47;30.13;;;;;;;6.11;67.94;98518.00;5049610;28;20625;-66
2021/01/23 03:41:55;;;;;;;53.10;30.27;;;;;;;6.22;67.73;98512.28;5045378;28;20119;-66
2021/01/23 03:44:22;;;;;;;51.22;29.02;;;;;;;6.29;67.63;98506.72;5049975;28;20072;-65
2021/01/23 03:46:48;;;;;;;46.13;27.20;;;;;;;6.37;67.42;98499.38;5048823;28;20538;-66
2021/01/23 03:49:14;;;;;;;49.28;28.45;;;;;;;6.40;67.49;98496.59;5051424;28;20492;-66
2021/01/23 03:51:40;;;;;;;42.28;25.20;;;;;;;6.41;67.46;98487.88;5046246;28;20048;-66
2021/01/23 03:54:06;;;;;;;47.50;26.25;;;;;;;6.35;67.76;98482.97;5050314;28;20045;-66
2021/01/23 03:56:33;;;;;;;45.90;27.92;;;;;;;6.34;67.81;98473.50;5045005;28;20037;-67
2021/01/23 03:58:59;;;;;;;50.30;28.65;;;;;;;6.28;67.68;98479.00;5048369;28;20044;-67
2021/01/23 04:01:25;;;;;;;43.13;25.27;;;;;;;6.26;67.70;98477.41;5044474;28;20444;-67
2021/01/23 04:03:51;;;;;;;45.75;24.10;;;;;;;6.30;67.48;98478.94;5047190;28;20049;-68
2021/01/23 04:06:17;;;;;;;39.30;23.80;;;;;;;6.43;67.26;98473.03;5046297;28;20050;-67
2021/01/23 04:08:43;;;;;;;43.25;22.40;;;;;;;6.56;66.76;98467.22;5043168;28;20077;-66
2021/01/23 04:11:09;;;;;;;37.58;22.13;;;;;;;6.61;66.84;98466.06;5044749;28;20433;-66
2021/01/23 04:13:37;;;;;;;43.25;23.23;;;;;;;6.65;66.70;98457.16;5044688;28;20048;-67
2021/01/23 04:16:04;;;;;;;44.42;23.52;;;;;;;6.70;66.62;98446.53;5050859;28;20041;-66
2021/01/23 04:18:30;;;;;;;38.15;22.95;;;;;;;6.73;66.57;98444.63;5045162;28;20049;-67
2021/01/23 04:20:56;;;;;;;37.35;21.40;;;;;;;6.73;66.71;98439.41;5047941;28;20040;-68
2021/01/23 04:23:23;;;;;;;38.25;21.08;;;;;;;6.68;66.61;98430.16;5047152;28;20045;-68
2021/01/23 04:25:49;;;;;;;36.83;21.40;;;;;;;6.53;66.89;98415.31;5049277;28;20059;-68
2021/01/23 04:28:15;;;;;;;35.70;21.48;;;;;;;6.43;67.10;98417.53;5044901;28;20538;-68
2021/01/23 04:30:42;;;;;;;40.03;22.58;;;;;;;6.31;67.45;98403.38;5043436;28;20492;-68
2021/01/23 04:33:08;;;;;;;38.67;22.15;;;;;;;6.16;67.44;98393.72;5045826;28;20475;-68
2021/01/23 04:35:35;;;;;;;40.40;20.73;;;;;;;5.99;68.00;98385.91;5047870;28;20040;-65
2021/01/23 04:38:01;;;;;;;42.97;22.10;;;;;;;5.89;68.10;98402.88;5044944;28;20472;-67
2021/01/23 04:40:28;;;;;;;35.33;19.95;;;;;;;5.99;67.89;98393.72;5048914;28;20128;-67
2021/01/23 04:42:55;;;;;;;41.63;25.27;;;;;;;6.09;67.49;98394.97;5045731;28;20045;-67
2021/01/23 04:45:21;;;;;;;48.03;29.17;;;;;;;6.11;67.26;98393.97;5048349;28;20146;-66
2021/01/23 04:47:52;;;;;;;43.25;22.45;;;;;;;6.12;67.11;98400.00;5049580;28;20053;-66
2021/01/23 04:50:18;;;;;;;36.40;21.37;;;;;;;6.18;66.83;98407.50;5050665;28;20058;-66
2021/01/23 04:52:44;;;;;;;39.75;21.80;;;;;;;6.21;66.80;98414.31;5050820;28;20756;-66
2021/01/23 04:55:11;;;;;;;52.55;27.67;;;;;;;6.18;67.04;98414.47;5050964;28;20045;-67
2021/01/23 04:57:38;;;;;;;48.50;27.20;;;;;;;6.17;67.00;98403.22;5052192;28;20053;-67
2021/01/23 05:00:07;;;;;;;41.17;22.50;;;;;;;6.16;67.03;98411.94;5052261;28;20049;-68
2021/01/23 05:02:33;;;;;;;36.13;21.25;;;;;;;6.19;67.22;98406.59;5047480;28;20120;-67
2021/01/23 05:05:01;;;;;;;38.75;20.75;;;;;;;6.25;67.02;98395.91;5051829;28;20484;-67
2021/01/23 05:07:28;;;;;;;30.90;19.73;;;;;;;6.28;67.10;98384.47;5048582;28;20041;-67
2021/01/23 05:09:55;;;;;;;30.70;17.65;;;;;;;6.27;66.95;98388.84;5050862;28;20045;-66
2021/01/23 05:12:35;;;;;;;33.25;18.13;;;;;;;6.29;67.31;98381.81;5053530;28;20101;-67
2021/01/23 05:15:02;;;;;;;28.52;17.52;;;;;;;6.32;67.08;98381.66;5049596;28;20050;-65
2021/01/23 05:17:28;;;;;;;31.92;18.02;;;;;;;6.32;67.02;98384.25;5051075;28;20048;-67
2021/01/23 05:19:54;;;;;;;37.70;18.83;;;;;;;6.39;66.97;98376.97;5054659;28;20041;-65
2021/01/23 05:22:21;;;;;;;33.15;19.45;;;;;;;6.39;67.11;98377.81;5051051;28;20042;-66
2021/01/23 05:24:49;;;;;;;35.90;19.83;;;;;;;6.47;66.82;98381.78;5049305;28;20041;-68
2021/01/23 05:27:15;;;;;;;29.42;18.35;;;;;;;6.47;67.02;98380.03;5050109;28;20125;-66
2021/01/23 05:29:58;;;;;;;32.28;19.75;;;;;;;6.48;67.02;98375.66;5055139;28;20051;-67
2021/01/23 05:32:24;;;;;;;31.90;17.30;;;;;;;6.46;66.74;98372.31;5046921;28;20084;-67
2021/01/23 05:34:51;;;;;;;33.35;19.40;;;;;;;6.43;66.86;98373.28;5049125;28;20523;-68
2021/01/23 05:37:37;;;;;;;35.13;20.55;;;;;;;6.50;66.98;98392.03;5046069;28;20053;-67
2021/01/23 05:40:04;;;;;;;35.28;19.33;;;;;;;6.49;66.64;98388.59;5051570;28;20052;-69
2021/01/23 05:42:30;;;;;;;41.35;24.25;;;;;;;6.51;66.73;98386.75;5047476;28;20143;-67
2021/01/23 05:45:08;;;;;;;48.13;24.80;;;;;;;6.48;66.97;98384.31;5049311;28;20049;-67
2021/01/23 05:47:35;;;;;;;41.33;21.42;;;;;;;6.50;66.93;98376.44;5051824;28;20388;-65
2021/01/23 05:50:02;;;;;;;37.78;22.27;;;;;;;6.48;66.57;98380.88;5053480;28;20399;-65
2021/01/23 05:52:29;;;;;;;35.13;21.30;;;;;;;6.43;66.99;98384.53;5051809;28;20049;-72
2021/01/23 05:54:56;;;;;;;37.97;22.02;;;;;;;6.40;67.11;98382.09;5049674;28;20480;-71
2021/01/23 05:57:23;;;;;;;38.20;20.42;;;;;;;6.39;67.12;98383.00;5050207;28;20053;-72
2021/01/23 05:59:50;;;;;;;44.33;24.25;;;;;;;6.33;67.31;98382.47;5053136;28;20147;-72
2021/01/23 06:02:18;;;;;;;40.75;22.60;;;;;;;6.30;67.63;98375.69;5046394;28;20053;-74
2021/01/23 06:04:49;;;;;;;48.78;27.98;;;;;;;6.22;67.53;98367.41;5046780;28;20482;-74
2021/01/23 06:07:43;;;;;;;48.97;29.00;;;;;;;6.19;67.93;98369.31;5048812;28;20048;-76
2021/01/23 06:10:41;;;;;;;47.50;26.63;;;;;;;6.19;67.85;98366.72;5039648;28;20293;-73
2021/01/23 06:13:42;;;;;;;44.65;26.90;;;;;;;6.15;67.90;98353.03;5048180;28;20061;-73
2021/01/23 06:16:37;;;;;;;;;;;;;;;6.32;67.14;98360.81;5050152;28;20060;-72
2021/01/23 06:19:42;;;;;;;42.55;22.80;;;;;;;6.04;67.90;98360.53;5052011;28;19928;-71
2021/01/23 06:22:09;;;;;;;43.90;22.30;;;;;;;5.89;68.23;98354.31;5048411;28;20052;-70
2021/01/23 06:24:55;;;;;;;40.55;22.48;;;;;;;5.76;69.06;98354.06;5048062;28;20072;-70
2021/01/23 06:27:43;;;;;;;46.67;21.98;;;;;;;5.71;69.29;98342.22;5042072;28;20112;-71
2021/01/23 06:30:30;;;;;;;44.35;24.13;;;;;;;5.65;69.53;98338.16;5049177;28;20234;-70
2021/01/23 06:32:57;;;;;;;50.67;27.67;;;;;;;5.67;69.49;98338.91;5051282;28;20044;-71
2021/01/23 06:35:23;;;;;;;48.00;26.20;;;;;;;5.67;69.60;98333.72;5047912;28;20144;-71
2021/01/23 06:37:49;;;;;;;45.72;25.25;;;;;;;5.71;69.70;98331.81;5047472;28;20045;-70
2021/01/23 06:40:16;;;;;;;40.63;24.88;;;;;;;5.76;69.56;98332.41;5046095;28;20190;-71
2021/01/23 06:42:47;;;;;;;42.08;24.27;;;;;;;5.80;69.59;98323.53;5047893;28;20049;-71
2021/01/23 06:45:21;;;;;;;37.63;22.25;;;;;;;5.81;69.87;98323.47;5045248;28;20056;-71
2021/01/23 06:47:49;;;;;;;42.65;21.75;;;;;;;5.81;69.61;98307.03;5046019;28;20045;-70
2021/01/23 06:50:33;;;;;;;37.05;23.02;;;;;;;5.85;69.87;98303.38;5050945;28;20124;-71
2021/01/23 06:53:00;;;;;;;40.53;23.13;;;;;;;5.91;69.70;98308.28;5046333;28;20451;-71
2021/01/23 06:55:43;;;;;;;40.40;23.20;;;;;;;5.98;69.87;98314.00;5049595;28;20049;-71
2021/01/23 06:58:18;;;;;;;43.03;22.98;;;;;;;6.02;69.63;98307.72;5046514;28;20476;-71
2021/01/23 07:00:46;;;;;;;42.40;24.60;;;;;;;6.06;69.55;98306.69;5047478;28;20045;-71
2021/01/23 07:03:13;;;;;;;44.97;25.38;;;;;;;6.17;69.44;98303.50;5046471;28;20045;-69
2021/01/23 07:05:47;;;;;;;44.90;25.60;;;;;;;6.19;69.24;98297.31;5047763;28;20484;-71
2021/01/23 07:08:25;;;;;;;42.17;24.33;;;;;;;6.23;69.37;98298.00;5046028;28;20087;-71
2021/01/23 07:11:09;;;;;;;47.65;26.40;;;;;;;6.32;69.41;98303.56;5050338;28;20532;-70
2021/01/23 07:13:37;;;;;;;41.05;22.55;;;;;;;6.40;69.17;98300.56;5043196;28;20103;-70
2021/01/23 07:16:03;;;;;;;42.17;21.40;;;;;;;6.43;68.93;98295.19;5045609;28;20419;-70
2021/01/23 07:18:29;;;;;;;35.00;19.67;;;;;;;6.39;69.12;98289.31;5050693;28;20080;-70
2021/01/23 07:20:56;;;;;;;41.05;21.35;;;;;;;6.43;69.04;98283.00;5048360;28;20097;-70
2021/01/23 07:23:23;;;;;;;41.80;22.10;;;;;;;6.51;69.10;98284.41;5048646;28;20072;-70
2021/01/23 07:25:50;;;;;;;37.90;21.88;;;;;;;6.54;69.13;98287.66;5050595;28;20138;-72
2021/01/23 07:28:20;;;;;;;47.95;24.63;;;;;;;6.55;69.04;98288.50;5046133;28;20471;-71
2021/01/23 07:30:47;;;;;;;42.60;23.70;;;;;;;6.52;69.27;98276.50;5044117;28;20067;-71
2021/01/23 07:33:37;;;;;;;45.28;24.17;;;;;;;6.54;69.41;98279.03;5046140;28;20080;-70
2021/01/23 07:36:03;;;;;;;44.80;24.27;;;;;;;6.60;69.04;98276.06;5050131;28;20045;-70
2021/01/23 07:38:29;;;;;;;46.15;23.90;;;;;;;6.66;69.10;98275.75;5043284;28;20592;-71
2021/01/23 07:40:56;;;;;;;45.03;23.75;;;;;;;6.64;69.11;98277.59;5049492;28;20044;-71
2021/01/23 07:43:22;;;;;;;47.92;24.88;;;;;;;6.66;68.96;98273.13;5046652;28;20498;-71
2021/01/23 07:45:53;;;;;;;44.75;24.20;;;;;;;6.67;69.08;98269.63;5050209;28;20061;-71
2021/01/23 07:48:19;;;;;;;45.10;24.23;;;;;;;6.73;69.03;98259.72;5046390;28;20059;-71
2021/01/23 07:50:46;;;;;;;42.72;22.33;;;;;;;6.75;68.99;98259.63;5051392;28;20447;-70
2021/01/23 07:53:14;;;;;;;46.92;25.00;;;;;;;6.77;69.23;98249.13;5044304;28;20506;-70
2021/01/23 07:55:40;;;;;;;53.38;28.25;;;;;;;6.77;69.13;98249.97;5044108;28;20574;-63
2021/01/23 07:58:07;;;;;;;50.78;26.92;;;;;;;6.81;69.24;98248.03;5045644;28;20063;-66
2021/01/23 08:00:34;;;;;;;44.20;25.55;;;;;;;6.87;69.20;98252.91;5044455;28;20053;-71
2021/01/23 08:03:01;;;;;;;47.90;27.38;;;;;;;6.89;69.18;98246.72;5042242;28;20515;-66
2021/01/23 08:05:47;;;;;;;33.72;22.08;;;;;;;6.92;69.10;98243.94;5029895;28;20045;-70
2021/01/23 08:08:28;;;;;;;35.55;21.38;;;;;;;6.96;68.97;98237.63;5030356;28;20482;-66
2021/01/23 08:10:54;;;;;;;38.20;21.85;;;;;;;7.03;68.90;98238.94;5031578;28;20049;-66
2021/01/23 08:13:24;;;;;;;46.03;23.38;;;;;;;7.05;68.80;98231.03;5030176;28;20107;-65
2021/01/23 08:15:51;;;;;;;44.67;24.13;;;;;;;7.16;68.77;98230.44;5031043;28;20056;-67
2021/01/23 08:18:19;;;;;;;37.92;22.85;;;;;;;7.17;68.62;98232.13;5037131;28;20219;-65
2021/01/23 08:20:46;;;;;;;34.22;21.13;;;;;;;7.20;68.84;98218.94;5039442;28;20098;-66
2021/01/23 08:23:14;;;;;;;37.67;21.83;;;;;;;7.18;68.85;98205.16;5041761;28;20041;-67
2021/01/23 08:25:48;;;;;;;36.45;20.88;;;;;;;7.17;69.09;98214.72;5047807;28;20053;-67
2021/01/23 08:28:16;;;;;;;37.95;22.33;;;;;;;7.18;69.09;98212.97;5046577;28;20041;-69
2021/01/23 08:30:42;;;;;;;34.88;19.67;;;;;;;7.18;69.15;98213.81;5055146;28;20036;-70
2021/01/23 08:33:10;;;;;;;37.05;19.92;;;;;;;7.21;68.99;98213.63;5045418;28;20041;-69
2021/01/23 08:35:39;;;;;;;36.20;20.67;;;;;;;7.27;69.06;98215.88;5047511;28;20087;-69
2021/01/23 08:38:06;;;;;;;35.95;19.40;;;;;;;7.32;68.78;98213.03;5049267;28;20065;-69
2021/01/23 08:40:32;;;;;;;31.67;18.85;;;;;;;7.35;69.00;98215.44;5048843;28;20045;-73
2021/01/23 08:42:58;;;;;;;31.75;19.88;;;;;;;7.38;68.96;98217.03;5049294;28;20394;-70
2021/01/23 08:45:25;;;;;;;33.70;20.13;;;;;;;7.42;68.72;98206.34;5035165;28;20045;-69
2021/01/23 08:47:52;;;;;;;35.78;19.17;;;;;;;7.48;68.61;98219.00;5043820;28;20095;-69
2021/01/23 08:50:19;;;;;;;33.58;19.88;;;;;;;7.53;68.59;98222.22;5040793;28;20499;-71
2021/01/23 08:52:46;;;;;;;30.25;17.45;;;;;;;7.58;68.63;98221.94;5038048;28;20527;-71
2021/01/23 08:55:12;;;;;;;36.80;18.55;;;;;;;7.57;68.98;98209.84;5038814;28;20044;-70
2021/01/23 08:57:39;;;;;;;33.67;19.30;;;;;;;7.53;68.87;98218.75;5053833;28;20125;-70
2021/01/23 09:00:07;;;;;;;29.70;17.63;;;;;;;7.49;69.22;98212.03;5048370;28;20055;-71
2021/01/23 09:02:34;;;;;;;30.70;18.55;;;;;;;7.52;69.16;98223.16;5042663;28;20075;-70
2021/01/23 09:05:00;;;;;;;31.75;17.95;;;;;;;7.55;69.11;98203.88;5048572;28;20598;-71
2021/01/23 09:07:26;;;;;;;30.10;17.92;;;;;;;7.51;69.25;98208.44;5049495;28;20261;-69
2021/01/23 09:09:53;;;;;;;29.35;17.95;;;;;;;7.52;69.25;98191.84;5052653;28;20045;-73
2021/01/23 09:12:19;;;;;;;32.60;18.60;;;;;;;7.50;69.49;98196.31;5055542;28;20136;-73
2021/01/23 09:14:46;;;;;;;35.83;20.60;;;;;;;7.51;69.44;98218.03;5048486;28;20037;-72
2021/01/23 09:17:13;;;;;;;31.80;18.80;;;;;;;7.59;69.42;98207.97;5050910;28;20045;-71
2021/01/23 09:19:39;;;;;;;35.35;20.80;;;;;;;7.72;69.36;98208.94;5050662;28;20067;-69
2021/01/23 09:22:05;;;;;;;29.48;17.48;;;;;;;7.85;68.87;98214.25;5050132;28;20045;-71
2021/01/23 09:24:31;;;;;;;33.35;18.15;;;;;;;7.85;68.67;98202.03;5050709;28;20128;-67
2021/01/23 09:26:58;;;;;;;34.60;18.70;;;;;;;7.94;68.86;98205.88;5050270;28;20053;-69
2021/01/23 09:29:24;;;;;;;27.77;18.33;;;;;;;8.13;68.37;98216.91;5050519;28;20145;-69
2021/01/23 09:31:50;;;;;;;29.20;16.75;;;;;;;8.16;68.27;98219.31;5049954;28;20049;-70
2021/01/23 09:34:16;;;;;;;31.90;18.60;;;;;;;8.20;68.30;98223.41;5050358;28;20200;-70
2021/01/23 09:36:42;;;;;;;30.50;17.50;;;;;;;8.22;68.11;98221.53;5049754;28;20382;-70
2021/01/23 09:39:08;;;;;;;31.10;19.13;;;;;;;8.23;68.21;98223.22;5053670;28;20131;-70
2021/01/23 09:41:34;;;;;;;29.33;17.45;;;;;;;8.21;68.31;98222.47;5053489;28;20075;-70
2021/01/23 09:44:02;;;;;;;35.95;20.30;;;;;;;8.17;68.40;98221.00;5053242;28;20523;-70
2021/01/23 09:46:28;;;;;;;37.20;19.77;;;;;;;8.22;68.26;98213.72;5053674;28;20079;-70
2021/01/23 09:48:54;;;;;;;36.17;20.60;;;;;;;8.26;68.18;98219.59;5053426;28;20438;-70
2021/01/23 09:51:20;;;;;;;32.97;20.85;;;;;;;8.23;68.24;98206.72;5053184;28;20397;-71
2021/01/23 09:53:46;;;;;;;37.78;20.05;;;;;;;8.17;68.25;98221.00;5050973;28;20068;-70
2021/01/23 09:56:12;;;;;;;35.75;20.98;;;;;;;8.09;68.63;98210.16;5053158;28;20132;-70
2021/01/23 09:58:38;;;;;;;35.05;19.08;;;;;;;7.97;68.68;98205.69;5053073;28;20055;-70
2021/01/23 10:01:05;;;;;;;39.00;19.95;;;;;;;7.94;68.89;98208.50;5053212;28;20041;-71
2021/01/23 10:03:31;;;;;;;35.72;20.38;;;;;;;7.92;68.85;98218.19;5053477;28;20132;-70
2021/01/23 10:05:57;;;;;;;35.75;19.92;;;;;;;7.86;68.89;98213.31;5052757;28;20048;-69
2021/01/23 10:08:24;;;;;;;34.85;20.83;;;;;;;7.85;69.10;98211.63;5041650;28;20045;-74
2021/01/23 10:10:50;;;;;;;30.15;20.00;;;;;;;7.89;69.09;98202.69;5044560;28;20064;-68
2021/01/23 10:13:16;;;;;;;33.40;20.30;;;;;;;7.93;69.06;98206.81;5050589;28;20064;-68
2021/01/23 10:15:42;;;;;;;34.20;20.77;;;;;;;7.94;68.92;98198.91;5046730;28;20092;-70
2021/01/23 10:18:09;;;;;;;35.65;19.65;;;;;;;7.99;68.91;98193.41;5044594;28;20053;-69
2021/01/23 10:20:37;;;;;;;32.30;20.55;;;;;;;8.03;68.58;98200.09;5040545;28;20182;-71
2021/01/23 10:23:03;;;;;;;33.28;19.60;;;;;;;8.14;68.60;98210.75;5052448;28;20103;-67
2021/01/23 10:25:29;;;;;;;36.78;20.35;;;;;;;8.13;68.60;98209.06;5052878;28;20491;-68
2021/01/23 10:27:55;;;;;;;34.42;21.20;;;;;;;8.13;68.60;98211.69;5041976;28;20124;-68
2021/01/23 10:30:22;;;;;;;38.30;22.00;;;;;;;8.11;68.63;98213.50;5039378;28;20057;-68
2021/01/23 10:32:48;;;;;;;44.55;24.13;;;;;;;8.09;68.77;98189.28;5044170;28;20037;-71
2021/01/23 10:35:16;;;;;;;37.58;21.52;;;;;;;8.12;68.83;98189.13;5048617;28;20048;-72
2021/01/23 10:37:42;;;;;;;42.97;24.20;;;;;;;8.03;69.15;98174.00;5040693;28;20041;-72
2021/01/23 10:40:10;;;;;;;46.20;26.10;;;;;;;8.02;69.12;98172.34;5038345;28;20066;-69
2021/01/23 10:42:36;;;;;;;42.30;22.80;;;;;;;8.00;69.27;98153.31;5042083;28;20128;-69
2021/01/23 10:45:03;;;;;;;39.15;23.45;;;;;;;7.95;69.42;98150.16;5042434;28;20502;-66
2021/01/23 10:47:29;;;;;;;35.42;21.58;;;;;;;7.87;69.64;98141.94;5037363;28;20054;-69
2021/01/23 10:49:55;;;;;;;53.65;27.70;;;;;;;7.83;69.87;98133.47;5036406;28;20053;-67
2021/01/23 10:52:22;;;;;;;49.20;29.70;;;;;;;7.85;69.83;98122.94;5043371;28;20561;-72
2021/01/23 10:54:48;;;;;;;36.42;20.52;;;;;;;7.86;69.65;98137.66;5044106;28;20041;-70
2021/01/23 10:57:14;;;;;;;47.30;25.42;;;;;;;7.74;69.94;98130.59;5049766;28;20048;-72
2021/01/23 10:59:41;;;;;;;43.53;23.85;;;;;;;7.70;70.47;98142.97;5039030;28;20073;-71
2021/01/23 11:02:07;;;;;;;38.50;23.10;;;;;;;7.61;70.29;98130.47;5042100;28;20046;-71
2021/01/23 11:04:33;;;;;;;41.85;22.85;;;;;;;7.46;70.91;98121.81;5040534;28;20069;-74
2021/01/23 11:07:00;;;;;;;44.92;24.50;;;;;;;7.42;70.89;98120.31;5045736;28;20056;-74
2021/01/23 11:09:26;;;;;;;38.58;22.50;;;;;;;7.37;70.95;98117.16;5050499;28;20071;-71
2021/01/23 11:11:52;;;;;;;37.70;19.80;;;;;;;7.38;71.11;98112.78;5050731;28;20049;-69
2021/01/23 11:14:19;;;;;;;33.90;20.05;;;;;;;7.28;71.28;98109.84;5052168;28;20047;-70
2021/01/23 11:16:45;;;;;;;34.30;21.25;;;;;;;7.29;71.24;98093.31;5050827;28;20037;-71
2021/01/23 11:19:12;;;;;;;31.80;20.15;;;;;;;7.29;71.53;98085.50;5051998;28;20049;-72
2021/01/23 11:21:38;;;;;;;36.72;21.13;;;;;;;7.32;71.54;98108.78;5049254;28;20126;-66
2021/01/23 11:24:05;;;;;;;39.47;21.35;;;;;;;7.31;71.79;98083.63;5051923;28;20136;-71
2021/01/23 11:26:31;;;;;;;39.05;21.15;;;;;;;7.35;71.77;98095.56;5053556;28;20506;-71
2021/01/23 11:28:57;;;;;;;33.22;19.92;;;;;;;7.34;71.61;98088.66;5051187;28;20052;-71
2021/01/23 11:31:24;;;;;;;37.40;21.42;;;;;;;7.44;71.65;98094.16;5052855;28;20442;-71
2021/01/23 11:33:50;;;;;;;34.28;19.63;;;;;;;7.54;71.47;98090.06;5050331;28;20542;-72